sensor_id;sensor_type;location;lat;lon;timestamp;P1;durP1;ratioP1;P2;durP2;ratioP2
76296;SDS011;65104;52.994;6.552;2022-11-18T00:02:19;23.95;;;12.57;;
76296;SDS011;65104;52.994;6.552;2022-11-18T00:04:44;24.52;;;13.52;;
76296;SDS011;65104;52.994;6.552;2022-11-18T00:07:10;23.92;;;12.55;;
76296;SDS011;65104;52.994;6.552;2022-11-18T00:09:35;24.63;;;13.30;;
76296;SDS011;65104;52.994;6.552;2022-11-18T00:12:01;25.73;;;13.05;;
76296;SDS011;65104;52.994;6.552;2022-11-18T00:14:45;23.67;;;11.85;;
76296;SDS011;65104;52.994;6.552;2022-11-18T00:17:10;25.67;;;13.55;;
76296;SDS011;65104;52.994;6.552;2022-11-18T00:19:37;22.63;;;12.55;;
76296;SDS011;65104;52.994;6.552;2022-11-18T00:24:30;22.35;;;11.35;;
76296;SDS011;65104;52.994;6.552;2022-11-18T00:26:56;24.55;;;12.45;;
76296;SDS011;65104;52.994;6.552;2022-11-18T00:29:22;24.17;;;13.73;;
76296;SDS011;65104;52.994;6.552;2022-11-18T00:31:52;25.80;;;13.52;;
76296;SDS011;65104;52.994;6.552;2022-11-18T00:34:18;24.00;;;12.60;;
76296;SDS011;65104;52.994;6.552;2022-11-18T00:36:44;24.48;;;12.80;;
76296;SDS011;65104;52.994;6.552;2022-11-18T00:39:11;29.08;;;13.13;;
76296;SDS011;65104;52.994;6.552;2022-11-18T00:41:38;27.17;;;13.43;;
76296;SDS011;65104;52.994;6.552;2022-11-18T00:44:22;26.35;;;13.68;;
76296;SDS011;65104;52.994;6.552;2022-11-18T00:46:47;30.40;;;14.93;;
76296;SDS011;65104;52.994;6.552;2022-11-18T00:49:12;24.52;;;12.25;;
76296;SDS011;65104;52.994;6.552;2022-11-18T00:51:38;24.50;;;13.55;;
76296;SDS011;65104;52.994;6.552;2022-11-18T00:54:05;22.90;;;12.60;;
76296;SDS011;65104;52.994;6.552;2022-11-18T00:56:31;24.50;;;13.10;;
76296;SDS011;65104;52.994;6.552;2022-11-18T00:58:57;28.05;;;13.63;;
76296;SDS011;65104;52.994;6.552;2022-11-18T01:01:23;25.80;;;13.15;;
76296;SDS011;65104;52.994;6.552;2022-11-18T01:03:48;28.85;;;13.93;;
76296;SDS011;65104;52.994;6.552;2022-11-18T01:06:14;27.67;;;14.25;;
76296;SDS011;65104;52.994;6.552;2022-11-18T01:08:39;26.67;;;12.73;;
76296;SDS011;65104;52.994;6.552;2022-11-18T01:11:05;29.88;;;14.18;;
76296;SDS011;65104;52.994;6.552;2022-11-18T01:13:49;31.65;;;14.48;;
76296;SDS011;65104;52.994;6.552;2022-11-18T01:16:19;29.58;;;14.27;;
76296;SDS011;65104;52.994;6.552;2022-11-18T01:18:45;28.15;;;13.70;;
76296;SDS011;65104;52.994;6.552;2022-11-18T01:21:11;32.65;;;15.25;;
76296;SDS011;65104;52.994;6.552;2022-11-18T01:23:37;30.98;;;13.98;;
76296;SDS011;65104;52.994;6.552;2022-11-18T01:26:03;28.38;;;14.10;;
76296;SDS011;65104;52.994;6.552;2022-11-18T01:31:02;29.77;;;13.70;;
76296;SDS011;65104;52.994;6.552;2022-11-18T01:33:37;34.78;;;15.63;;
76296;SDS011;65104;52.994;6.552;2022-11-18T01:36:03;32.13;;;15.63;;
76296;SDS011;65104;52.994;6.552;2022-11-18T01:38:37;30.33;;;14.90;;
76296;SDS011;65104;52.994;6.552;2022-11-18T01:41:02;34.63;;;15.65;;
76296;SDS011;65104;52.994;6.552;2022-11-18T01:43:44;30.08;;;14.13;;
76296;SDS011;65104;52.994;6.552;2022-11-18T01:46:16;29.60;;;15.02;;
76296;SDS011;65104;52.994;6.552;2022-11-18T01:48:42;32.45;;;16.23;;
76296;SDS011;65104;52.994;6.552;2022-11-18T01:51:11;31.35;;;16.48;;
76296;SDS011;65104;52.994;6.552;2022-11-18T01:53:41;29.13;;;13.63;;
76296;SDS011;65104;52.994;6.552;2022-11-18T01:56:12;29.73;;;14.88;;
76296;SDS011;65104;52.994;6.552;2022-11-18T01:58:41;30.02;;;13.35;;
76296;SDS011;65104;52.994;6.552;2022-11-18T02:01:10;27.17;;;13.60;;
76296;SDS011;65104;52.994;6.552;2022-11-18T02:03:37;31.20;;;15.50;;
76296;SDS011;65104;52.994;6.552;2022-11-18T02:06:02;33.53;;;16.20;;
76296;SDS011;65104;52.994;6.552;2022-11-18T02:08:30;27.88;;;13.93;;
76296;SDS011;65104;52.994;6.552;2022-11-18T02:10:56;30.95;;;15.18;;
76296;SDS011;65104;52.994;6.552;2022-11-18T02:13:22;32.88;;;15.18;;
76296;SDS011;65104;52.994;6.552;2022-11-18T02:34:24;30.05;;;13.25;;
76296;SDS011;65104;52.994;6.552;2022-11-18T02:37:19;28.42;;;13.20;;
76296;SDS011;65104;52.994;6.552;2022-11-18T02:40:04;28.42;;;14.13;;
76296;SDS011;65104;52.994;6.552;2022-11-18T02:42:36;27.48;;;13.63;;
76296;SDS011;65104;52.994;6.552;2022-11-18T02:45:05;30.90;;;13.88;;
76296;SDS011;65104;52.994;6.552;2022-11-18T02:47:36;26.73;;;13.90;;
76296;SDS011;65104;52.994;6.552;2022-11-18T02:50:05;27.80;;;12.52;;
76296;SDS011;65104;52.994;6.552;2022-11-18T02:52:33;31.50;;;13.90;;
76296;SDS011;65104;52.994;6.552;2022-11-18T02:55:02;29.13;;;14.40;;
76296;SDS011;65104;52.994;6.552;2022-11-18T02:57:33;29.92;;;13.95;;
76296;SDS011;65104;52.994;6.552;2022-11-18T03:00:00;30.10;;;13.77;;
76296;SDS011;65104;52.994;6.552;2022-11-18T03:02:25;27.83;;;14.35;;
76296;SDS011;65104;52.994;6.552;2022-11-18T03:04:52;31.67;;;14.48;;
76296;SDS011;65104;52.994;6.552;2022-11-18T03:07:24;35.35;;;15.02;;
76296;SDS011;65104;52.994;6.552;2022-11-18T03:09:55;28.35;;;13.02;;
76296;SDS011;65104;52.994;6.552;2022-11-18T03:18:11;32.65;;;15.25;;
76296;SDS011;65104;52.994;6.552;2022-11-18T03:26:07;31.30;;;13.98;;
76296;SDS011;65104;52.994;6.552;2022-11-18T03:28:42;29.90;;;13.13;;
76296;SDS011;65104;52.994;6.552;2022-11-18T03:33:46;28.95;;;13.77;;
76296;SDS011;65104;52.994;6.552;2022-11-18T03:36:16;28.20;;;14.38;;
76296;SDS011;65104;52.994;6.552;2022-11-18T03:38:46;30.35;;;13.23;;
76296;SDS011;65104;52.994;6.552;2022-11-18T03:41:15;32.95;;;14.43;;
76296;SDS011;65104;52.994;6.552;2022-11-18T03:44:08;28.80;;;14.30;;
76296;SDS011;65104;52.994;6.552;2022-11-18T03:46:43;25.80;;;14.27;;
76296;SDS011;65104;52.994;6.552;2022-11-18T03:49:19;28.90;;;14.82;;
76296;SDS011;65104;52.994;6.552;2022-11-18T03:51:51;28.27;;;15.05;;
76296;SDS011;65104;52.994;6.552;2022-11-18T03:54:21;31.75;;;14.82;;
76296;SDS011;65104;52.994;6.552;2022-11-18T03:56:57;29.35;;;15.02;;
76296;SDS011;65104;52.994;6.552;2022-11-18T03:59:31;31.80;;;14.55;;
76296;SDS011;65104;52.994;6.552;2022-11-18T04:02:11;34.13;;;16.02;;
76296;SDS011;65104;52.994;6.552;2022-11-18T04:04:40;30.38;;;15.52;;
76296;SDS011;65104;52.994;6.552;2022-11-18T04:09:58;27.25;;;13.25;;
76296;SDS011;65104;52.994;6.552;2022-11-18T04:12:33;32.35;;;13.80;;
76296;SDS011;65104;52.994;6.552;2022-11-18T04:15:06;30.00;;;14.75;;
76296;SDS011;65104;52.994;6.552;2022-11-18T04:17:31;24.63;;;12.25;;
76296;SDS011;65104;52.994;6.552;2022-11-18T04:19:57;29.88;;;14.07;;
76296;SDS011;65104;52.994;6.552;2022-11-18T04:22:22;27.58;;;13.10;;
76296;SDS011;65104;52.994;6.552;2022-11-18T04:24:48;26.90;;;13.50;;
76296;SDS011;65104;52.994;6.552;2022-11-18T04:27:13;28.17;;;13.88;;
76296;SDS011;65104;52.994;6.552;2022-11-18T04:29:38;27.95;;;14.10;;
76296;SDS011;65104;52.994;6.552;2022-11-18T04:32:04;29.65;;;14.30;;
76296;SDS011;65104;52.994;6.552;2022-11-18T04:34:30;25.65;;;12.77;;
76296;SDS011;65104;52.994;6.552;2022-11-18T04:36:56;31.58;;;14.70;;
76296;SDS011;65104;52.994;6.552;2022-11-18T04:39:21;26.15;;;12.73;;
76296;SDS011;65104;52.994;6.552;2022-11-18T04:41:47;29.80;;;14.30;;
76296;SDS011;65104;52.994;6.552;2022-11-18T04:44:29;31.65;;;15.55;;
76296;SDS011;65104;52.994;6.552;2022-11-18T04:49:23;25.88;;;12.60;;
76296;SDS011;65104;52.994;6.552;2022-11-18T04:51:49;26.10;;;13.05;;
76296;SDS011;65104;52.994;6.552;2022-11-18T04:54:16;24.77;;;11.77;;
76296;SDS011;65104;52.994;6.552;2022-11-18T04:56:45;27.63;;;13.65;;
76296;SDS011;65104;52.994;6.552;2022-11-18T04:59:11;26.10;;;13.77;;
76296;SDS011;65104;52.994;6.552;2022-11-18T05:01:37;27.20;;;13.15;;
76296;SDS011;65104;52.994;6.552;2022-11-18T05:04:03;25.60;;;13.35;;
76296;SDS011;65104;52.994;6.552;2022-11-18T05:06:29;24.70;;;12.98;;
76296;SDS011;65104;52.994;6.552;2022-11-18T05:08:58;27.73;;;13.13;;
76296;SDS011;65104;52.994;6.552;2022-11-18T05:11:28;27.95;;;12.52;;
76296;SDS011;65104;52.994;6.552;2022-11-18T05:14:12;30.45;;;13.55;;
76296;SDS011;65104;52.994;6.552;2022-11-18T05:16:39;29.23;;;13.30;;
76296;SDS011;65104;52.994;6.552;2022-11-18T05:19:05;28.17;;;13.60;;
76296;SDS011;65104;52.994;6.552;2022-11-18T05:21:31;25.33;;;13.60;;
76296;SDS011;65104;52.994;6.552;2022-11-18T05:24:00;28.23;;;13.52;;
76296;SDS011;65104;52.994;6.552;2022-11-18T05:26:25;26.38;;;12.40;;
76296;SDS011;65104;52.994;6.552;2022-11-18T05:28:51;25.27;;;13.90;;
76296;SDS011;65104;52.994;6.552;2022-11-18T05:31:17;27.52;;;12.35;;
76296;SDS011;65104;52.994;6.552;2022-11-18T05:33:43;27.83;;;12.90;;
76296;SDS011;65104;52.994;6.552;2022-11-18T05:36:10;30.55;;;14.18;;
76296;SDS011;65104;52.994;6.552;2022-11-18T05:38:43;28.63;;;12.63;;
76296;SDS011;65104;52.994;6.552;2022-11-18T05:41:08;29.20;;;13.85;;
76296;SDS011;65104;52.994;6.552;2022-11-18T05:43:35;29.45;;;13.43;;
76296;SDS011;65104;52.994;6.552;2022-11-18T05:46:01;25.35;;;12.77;;
76296;SDS011;65104;52.994;6.552;2022-11-18T05:48:28;24.83;;;12.80;;
76296;SDS011;65104;52.994;6.552;2022-11-18T05:50:53;26.60;;;12.75;;
76296;SDS011;65104;52.994;6.552;2022-11-18T05:53:20;29.10;;;13.43;;
76296;SDS011;65104;52.994;6.552;2022-11-18T05:58:48;31.55;;;13.48;;
76296;SDS011;65104;52.994;6.552;2022-11-18T06:01:15;31.52;;;14.50;;
76296;SDS011;65104;52.994;6.552;2022-11-18T06:03:46;28.65;;;13.07;;
76296;SDS011;65104;52.994;6.552;2022-11-18T06:06:15;27.98;;;12.30;;
76296;SDS011;65104;52.994;6.552;2022-11-18T06:09:05;29.88;;;12.30;;
76296;SDS011;65104;52.994;6.552;2022-11-18T06:11:32;28.75;;;12.75;;
76296;SDS011;65104;52.994;6.552;2022-11-18T06:14:08;27.02;;;12.40;;
76296;SDS011;65104;52.994;6.552;2022-11-18T06:16:50;24.98;;;12.00;;
76296;SDS011;65104;52.994;6.552;2022-11-18T06:19:20;28.27;;;13.23;;
76296;SDS011;65104;52.994;6.552;2022-11-18T06:21:46;29.85;;;12.75;;
76296;SDS011;65104;52.994;6.552;2022-11-18T06:24:13;26.55;;;12.23;;
76296;SDS011;65104;52.994;6.552;2022-11-18T06:26:38;27.48;;;13.18;;
76296;SDS011;65104;52.994;6.552;2022-11-18T06:29:05;30.55;;;13.18;;
76296;SDS011;65104;52.994;6.552;2022-11-18T06:31:32;27.70;;;13.00;;
76296;SDS011;65104;52.994;6.552;2022-11-18T06:33:58;32.45;;;13.90;;
76296;SDS011;65104;52.994;6.552;2022-11-18T06:36:23;29.70;;;13.13;;
76296;SDS011;65104;52.994;6.552;2022-11-18T06:38:48;32.17;;;12.75;;
76296;SDS011;65104;52.994;6.552;2022-11-18T06:41:14;34.13;;;14.40;;
76296;SDS011;65104;52.994;6.552;2022-11-18T06:43:39;31.02;;;13.57;;
76296;SDS011;65104;52.994;6.552;2022-11-18T06:46:11;31.13;;;13.60;;
76296;SDS011;65104;52.994;6.552;2022-11-18T06:49:00;27.98;;;12.07;;
76296;SDS011;65104;52.994;6.552;2022-11-18T06:51:26;29.95;;;12.45;;
76296;SDS011;65104;52.994;6.552;2022-11-18T06:53:52;32.42;;;13.80;;
76296;SDS011;65104;52.994;6.552;2022-11-18T06:56:18;30.30;;;12.90;;
76296;SDS011;65104;52.994;6.552;2022-11-18T06:58:45;26.25;;;11.77;;
76296;SDS011;65104;52.994;6.552;2022-11-18T07:01:18;29.08;;;13.80;;
76296;SDS011;65104;52.994;6.552;2022-11-18T07:03:48;25.45;;;11.95;;
76296;SDS011;65104;52.994;6.552;2022-11-18T07:06:16;28.52;;;12.10;;
76296;SDS011;65104;52.994;6.552;2022-11-18T07:08:43;26.92;;;12.75;;
76296;SDS011;65104;52.994;6.552;2022-11-18T07:11:10;29.33;;;12.40;;
76296;SDS011;65104;52.994;6.552;2022-11-18T07:13:37;25.40;;;11.52;;
76296;SDS011;65104;52.994;6.552;2022-11-18T07:16:08;28.05;;;12.88;;
76296;SDS011;65104;52.994;6.552;2022-11-18T07:18:36;28.95;;;12.43;;
76296;SDS011;65104;52.994;6.552;2022-11-18T07:21:03;27.83;;;13.30;;
76296;SDS011;65104;52.994;6.552;2022-11-18T07:23:29;26.88;;;11.98;;
76296;SDS011;65104;52.994;6.552;2022-11-18T07:25:55;27.80;;;13.50;;
76296;SDS011;65104;52.994;6.552;2022-11-18T07:28:21;26.73;;;11.70;;
76296;SDS011;65104;52.994;6.552;2022-11-18T07:30:46;30.45;;;12.13;;
76296;SDS011;65104;52.994;6.552;2022-11-18T07:33:11;26.23;;;11.95;;
76296;SDS011;65104;52.994;6.552;2022-11-18T07:35:37;24.05;;;11.82;;
76296;SDS011;65104;52.994;6.552;2022-11-18T07:38:03;24.67;;;10.70;;
76296;SDS011;65104;52.994;6.552;2022-11-18T07:40:29;27.20;;;11.13;;
76296;SDS011;65104;52.994;6.552;2022-11-18T07:42:54;24.35;;;11.40;;
76296;SDS011;65104;52.994;6.552;2022-11-18T07:45:20;26.67;;;11.90;;
76296;SDS011;65104;52.994;6.552;2022-11-18T07:47:45;24.17;;;11.48;;
76296;SDS011;65104;52.994;6.552;2022-11-18T07:50:10;23.15;;;10.00;;
76296;SDS011;65104;52.994;6.552;2022-11-18T07:52:36;20.40;;;9.60;;
76296;SDS011;65104;52.994;6.552;2022-11-18T07:55:01;20.77;;;9.55;;
76296;SDS011;65104;52.994;6.552;2022-11-18T07:57:27;20.70;;;9.52;;
76296;SDS011;65104;52.994;6.552;2022-11-18T07:59:52;23.50;;;10.63;;
76296;SDS011;65104;52.994;6.552;2022-11-18T08:02:17;21.27;;;9.80;;
76296;SDS011;65104;52.994;6.552;2022-11-18T08:04:43;20.52;;;9.57;;
76296;SDS011;65104;52.994;6.552;2022-11-18T08:07:08;20.42;;;9.55;;
76296;SDS011;65104;52.994;6.552;2022-11-18T08:09:34;21.92;;;9.70;;
76296;SDS011;65104;52.994;6.552;2022-11-18T08:11:59;23.33;;;9.50;;
76296;SDS011;65104;52.994;6.552;2022-11-18T08:14:25;23.55;;;10.07;;
76296;SDS011;65104;52.994;6.552;2022-11-18T08:16:52;20.48;;;9.13;;
76296;SDS011;65104;52.994;6.552;2022-11-18T08:19:18;21.30;;;8.75;;
76296;SDS011;65104;52.994;6.552;2022-11-18T08:21:43;19.83;;;8.60;;
76296;SDS011;65104;52.994;6.552;2022-11-18T08:24:08;16.02;;;7.65;;
76296;SDS011;65104;52.994;6.552;2022-11-18T08:26:34;17.77;;;8.10;;
76296;SDS011;65104;52.994;6.552;2022-11-18T08:29:00;17.60;;;8.00;;
76296;SDS011;65104;52.994;6.552;2022-11-18T08:31:26;16.33;;;8.02;;
76296;SDS011;65104;52.994;6.552;2022-11-18T08:34:03;14.98;;;7.45;;
76296;SDS011;65104;52.994;6.552;2022-11-18T08:36:31;17.85;;;8.10;;
76296;SDS011;65104;52.994;6.552;2022-11-18T08:38:58;18.48;;;8.48;;
76296;SDS011;65104;52.994;6.552;2022-11-18T08:41:30;17.00;;;8.63;;
76296;SDS011;65104;52.994;6.552;2022-11-18T08:43:57;19.52;;;8.18;;
76296;SDS011;65104;52.994;6.552;2022-11-18T08:46:23;17.85;;;8.60;;
76296;SDS011;65104;52.994;6.552;2022-11-18T08:48:49;21.50;;;7.95;;
76296;SDS011;65104;52.994;6.552;2022-11-18T08:51:14;21.25;;;9.23;;
76296;SDS011;65104;52.994;6.552;2022-11-18T08:53:40;17.77;;;9.23;;
76296;SDS011;65104;52.994;6.552;2022-11-18T08:56:05;14.60;;;8.07;;
76296;SDS011;65104;52.994;6.552;2022-11-18T08:58:31;17.33;;;7.82;;
76296;SDS011;65104;52.994;6.552;2022-11-18T09:00:57;17.67;;;8.40;;
76296;SDS011;65104;52.994;6.552;2022-11-18T09:03:22;17.70;;;7.95;;
76296;SDS011;65104;52.994;6.552;2022-11-18T09:05:48;18.35;;;8.65;;
76296;SDS011;65104;52.994;6.552;2022-11-18T09:08:14;18.65;;;8.90;;
76296;SDS011;65104;52.994;6.552;2022-11-18T09:10:40;20.35;;;9.50;;
76296;SDS011;65104;52.994;6.552;2022-11-18T09:13:06;19.95;;;8.88;;
76296;SDS011;65104;52.994;6.552;2022-11-18T09:15:31;21.30;;;9.88;;
76296;SDS011;65104;52.994;6.552;2022-11-18T09:17:57;20.45;;;9.85;;
76296;SDS011;65104;52.994;6.552;2022-11-18T09:20:22;20.73;;;9.50;;
76296;SDS011;65104;52.994;6.552;2022-11-18T09:22:48;20.40;;;9.75;;
76296;SDS011;65104;52.994;6.552;2022-11-18T09:25:14;21.52;;;9.77;;
76296;SDS011;65104;52.994;6.552;2022-11-18T09:27:40;19.65;;;9.35;;
76296;SDS011;65104;52.994;6.552;2022-11-18T09:30:05;20.15;;;9.75;;
76296;SDS011;65104;52.994;6.552;2022-11-18T09:32:32;18.88;;;9.65;;
76296;SDS011;65104;52.994;6.552;2022-11-18T09:34:58;18.85;;;9.50;;
76296;SDS011;65104;52.994;6.552;2022-11-18T09:37:23;16.13;;;8.63;;
76296;SDS011;65104;52.994;6.552;2022-11-18T09:39:48;17.63;;;9.68;;
76296;SDS011;65104;52.994;6.552;2022-11-18T09:45:15;18.80;;;8.50;;
76296;SDS011;65104;52.994;6.552;2022-11-18T09:47:46;20.30;;;9.05;;
76296;SDS011;65104;52.994;6.552;2022-11-18T09:50:13;20.48;;;9.48;;
76296;SDS011;65104;52.994;6.552;2022-11-18T09:55:43;17.05;;;8.45;;
76296;SDS011;65104;52.994;6.552;2022-11-18T09:58:14;22.05;;;8.48;;
76296;SDS011;65104;52.994;6.552;2022-11-18T10:00:44;14.82;;;7.68;;
76296;SDS011;65104;52.994;6.552;2022-11-18T10:11:23;16.38;;;7.88;;
76296;SDS011;65104;52.994;6.552;2022-11-18T10:13:54;16.42;;;7.57;;
76296;SDS011;65104;52.994;6.552;2022-11-18T10:19:50;13.48;;;7.32;;
76296;SDS011;65104;52.994;6.552;2022-11-18T10:24:56;13.60;;;7.43;;
76296;SDS011;65104;52.994;6.552;2022-11-18T10:27:25;14.18;;;7.25;;
76296;SDS011;65104;52.994;6.552;2022-11-18T10:29:58;14.10;;;6.95;;
76296;SDS011;65104;52.994;6.552;2022-11-18T10:32:25;12.93;;;6.68;;
76296;SDS011;65104;52.994;6.552;2022-11-18T10:34:55;17.23;;;7.32;;
76296;SDS011;65104;52.994;6.552;2022-11-18T10:37:24;15.45;;;8.00;;
76296;SDS011;65104;52.994;6.552;2022-11-18T10:39:50;15.80;;;7.07;;
76296;SDS011;65104;52.994;6.552;2022-11-18T10:42:19;21.55;;;8.43;;
76296;SDS011;65104;52.994;6.552;2022-11-18T10:44:52;15.82;;;8.05;;
76296;SDS011;65104;52.994;6.552;2022-11-18T10:49:48;18.60;;;9.23;;
76296;SDS011;65104;52.994;6.552;2022-11-18T10:52:15;19.15;;;9.13;;
76296;SDS011;65104;52.994;6.552;2022-11-18T10:54:41;19.85;;;8.98;;
76296;SDS011;65104;52.994;6.552;2022-11-18T10:57:20;21.48;;;10.73;;
76296;SDS011;65104;52.994;6.552;2022-11-18T10:59:49;16.65;;;7.90;;
76296;SDS011;65104;52.994;6.552;2022-11-18T11:04:56;21.55;;;9.10;;
76296;SDS011;65104;52.994;6.552;2022-11-18T11:07:29;18.50;;;8.73;;
76296;SDS011;65104;52.994;6.552;2022-11-18T11:12:35;17.15;;;8.38;;
76296;SDS011;65104;52.994;6.552;2022-11-18T11:15:17;18.92;;;8.60;;
76296;SDS011;65104;52.994;6.552;2022-11-18T11:17:53;18.98;;;8.25;;
76296;SDS011;65104;52.994;6.552;2022-11-18T11:20:41;19.75;;;8.35;;
76296;SDS011;65104;52.994;6.552;2022-11-18T11:23:10;18.25;;;8.73;;
76296;SDS011;65104;52.994;6.552;2022-11-18T11:28:15;19.35;;;8.77;;
76296;SDS011;65104;52.994;6.552;2022-11-18T11:30:47;20.45;;;8.45;;
76296;SDS011;65104;52.994;6.552;2022-11-18T11:33:25;22.33;;;9.82;;
76296;SDS011;65104;52.994;6.552;2022-11-18T11:36:11;21.50;;;9.55;;
76296;SDS011;65104;52.994;6.552;2022-11-18T11:41:20;18.92;;;8.45;;
76296;SDS011;65104;52.994;6.552;2022-11-18T11:49:42;18.38;;;8.52;;
76296;SDS011;65104;52.994;6.552;2022-11-18T11:52:15;19.15;;;8.43;;
76296;SDS011;65104;52.994;6.552;2022-11-18T11:55:03;18.73;;;9.07;;
76296;SDS011;65104;52.994;6.552;2022-11-18T11:57:43;18.50;;;8.23;;
76296;SDS011;65104;52.994;6.552;2022-11-18T12:00:32;21.00;;;9.20;;
76296;SDS011;65104;52.994;6.552;2022-11-18T12:05:53;21.50;;;9.05;;
76296;SDS011;65104;52.994;6.552;2022-11-18T12:08:23;17.60;;;7.38;;
76296;SDS011;65104;52.994;6.552;2022-11-18T12:10:55;21.15;;;8.65;;
76296;SDS011;65104;52.994;6.552;2022-11-18T12:19:35;15.07;;;6.85;;
76296;SDS011;65104;52.994;6.552;2022-11-18T12:22:03;16.38;;;7.35;;
76296;SDS011;65104;52.994;6.552;2022-11-18T12:24:36;18.42;;;7.25;;
76296;SDS011;65104;52.994;6.552;2022-11-18T12:27:04;15.93;;;7.47;;
76296;SDS011;65104;52.994;6.552;2022-11-18T12:32:41;14.05;;;6.47;;
76296;SDS011;65104;52.994;6.552;2022-11-18T12:44:03;8.55;;;4.72;;
76296;SDS011;65104;52.994;6.552;2022-11-18T12:51:43;11.15;;;5.57;;
76296;SDS011;65104;52.994;6.552;2022-11-18T12:54:19;10.98;;;5.28;;
76296;SDS011;65104;52.994;6.552;2022-11-18T12:56:49;11.52;;;4.95;;
76296;SDS011;65104;52.994;6.552;2022-11-18T12:59:15;10.88;;;5.10;;
76296;SDS011;65104;52.994;6.552;2022-11-18T13:01:41;11.93;;;5.47;;
76296;SDS011;65104;52.994;6.552;2022-11-18T13:04:08;10.63;;;4.75;;
76296;SDS011;65104;52.994;6.552;2022-11-18T13:06:40;13.55;;;5.72;;
76296;SDS011;65104;52.994;6.552;2022-11-18T13:11:50;12.73;;;5.97;;
76296;SDS011;65104;52.994;6.552;2022-11-18T13:14:19;13.02;;;6.63;;
76296;SDS011;65104;52.994;6.552;2022-11-18T13:17:35;14.02;;;6.18;;
76296;SDS011;65104;52.994;6.552;2022-11-18T13:25:49;13.55;;;6.60;;
76296;SDS011;65104;52.994;6.552;2022-11-18T13:31:01;17.20;;;7.93;;
76296;SDS011;65104;52.994;6.552;2022-11-18T13:33:37;16.02;;;7.65;;
76296;SDS011;65104;52.994;6.552;2022-11-18T13:36:20;15.45;;;7.18;;
76296;SDS011;65104;52.994;6.552;2022-11-18T13:39:00;15.80;;;7.03;;
76296;SDS011;65104;52.994;6.552;2022-11-18T13:41:29;15.00;;;7.05;;
76296;SDS011;65104;52.994;6.552;2022-11-18T13:46:47;14.10;;;7.10;;
76296;SDS011;65104;52.994;6.552;2022-11-18T13:49:20;16.40;;;8.15;;
76296;SDS011;65104;52.994;6.552;2022-11-18T13:51:56;16.95;;;7.90;;
76296;SDS011;65104;52.994;6.552;2022-11-18T13:54:23;15.68;;;6.93;;
76296;SDS011;65104;52.994;6.552;2022-11-18T13:57:18;14.93;;;7.53;;
76296;SDS011;65104;52.994;6.552;2022-11-18T13:59:48;15.60;;;7.30;;
76296;SDS011;65104;52.994;6.552;2022-11-18T14:02:16;16.05;;;7.25;;
76296;SDS011;65104;52.994;6.552;2022-11-18T14:05:16;16.20;;;7.65;;
76296;SDS011;65104;52.994;6.552;2022-11-18T14:07:41;15.77;;;8.13;;
76296;SDS011;65104;52.994;6.552;2022-11-18T14:10:48;11.90;;;6.45;;
76296;SDS011;65104;52.994;6.552;2022-11-18T14:15:45;16.25;;;6.53;;
76296;SDS011;65104;52.994;6.552;2022-11-18T14:18:18;16.95;;;7.78;;
76296;SDS011;65104;52.994;6.552;2022-11-18T14:20:50;13.57;;;6.90;;
76296;SDS011;65104;52.994;6.552;2022-11-18T14:23:16;17.38;;;8.13;;
76296;SDS011;65104;52.994;6.552;2022-11-18T14:25:51;17.55;;;7.35;;
76296;SDS011;65104;52.994;6.552;2022-11-18T14:30:41;11.73;;;6.13;;
76296;SDS011;65104;52.994;6.552;2022-11-18T14:33:20;15.30;;;7.53;;
76296;SDS011;65104;52.994;6.552;2022-11-18T14:35:51;15.45;;;7.18;;
76296;SDS011;65104;52.994;6.552;2022-11-18T14:41:02;16.33;;;7.68;;
76296;SDS011;65104;52.994;6.552;2022-11-18T14:43:29;12.52;;;6.25;;
76296;SDS011;65104;52.994;6.552;2022-11-18T14:45:59;17.00;;;7.30;;
76296;SDS011;65104;52.994;6.552;2022-11-18T14:48:27;14.15;;;7.18;;
76296;SDS011;65104;52.994;6.552;2022-11-18T14:50:54;16.65;;;7.28;;
76296;SDS011;65104;52.994;6.552;2022-11-18T14:53:20;13.70;;;7.40;;
76296;SDS011;65104;52.994;6.552;2022-11-18T14:55:49;19.38;;;7.47;;
76296;SDS011;65104;52.994;6.552;2022-11-18T14:58:16;21.30;;;8.05;;
76296;SDS011;65104;52.994;6.552;2022-11-18T15:00:43;16.10;;;7.63;;
76296;SDS011;65104;52.994;6.552;2022-11-18T15:03:10;16.85;;;8.13;;
76296;SDS011;65104;52.994;6.552;2022-11-18T15:05:36;15.63;;;7.93;;
76296;SDS011;65104;52.994;6.552;2022-11-18T15:08:01;16.65;;;8.10;;
76296;SDS011;65104;52.994;6.552;2022-11-18T15:10:27;17.55;;;7.75;;
76296;SDS011;65104;52.994;6.552;2022-11-18T15:12:52;18.17;;;8.20;;
76296;SDS011;65104;52.994;6.552;2022-11-18T15:15:18;22.17;;;10.95;;
76296;SDS011;65104;52.994;6.552;2022-11-18T15:17:43;15.88;;;8.30;;
76296;SDS011;65104;52.994;6.552;2022-11-18T15:20:12;21.50;;;10.35;;
76296;SDS011;65104;52.994;6.552;2022-11-18T15:22:41;20.58;;;9.15;;
76296;SDS011;65104;52.994;6.552;2022-11-18T15:25:07;21.67;;;8.48;;
76296;SDS011;65104;52.994;6.552;2022-11-18T15:27:33;16.80;;;7.72;;
76296;SDS011;65104;52.994;6.552;2022-11-18T15:29:59;18.95;;;8.88;;
76296;SDS011;65104;52.994;6.552;2022-11-18T15:32:24;18.83;;;8.77;;
76296;SDS011;65104;52.994;6.552;2022-11-18T15:34:50;21.38;;;9.57;;
76296;SDS011;65104;52.994;6.552;2022-11-18T15:37:16;17.10;;;8.07;;
76296;SDS011;65104;52.994;6.552;2022-11-18T15:39:41;17.83;;;8.32;;
76296;SDS011;65104;52.994;6.552;2022-11-18T15:42:08;18.20;;;8.30;;
76296;SDS011;65104;52.994;6.552;2022-11-18T15:44:33;14.95;;;7.47;;
76296;SDS011;65104;52.994;6.552;2022-11-18T15:46:59;14.50;;;7.55;;
76296;SDS011;65104;52.994;6.552;2022-11-18T15:49:25;16.70;;;7.28;;
76296;SDS011;65104;52.994;6.552;2022-11-18T15:51:51;16.75;;;8.10;;
76296;SDS011;65104;52.994;6.552;2022-11-18T15:54:17;14.60;;;7.85;;
76296;SDS011;65104;52.994;6.552;2022-11-18T15:56:42;13.90;;;6.80;;
76296;SDS011;65104;52.994;6.552;2022-11-18T15:59:08;14.95;;;7.50;;
76296;SDS011;65104;52.994;6.552;2022-11-18T16:01:36;15.05;;;7.32;;
76296;SDS011;65104;52.994;6.552;2022-11-18T16:06:29;14.65;;;7.50;;
76296;SDS011;65104;52.994;6.552;2022-11-18T16:08:55;16.60;;;8.02;;
76296;SDS011;65104;52.994;6.552;2022-11-18T16:11:21;19.20;;;8.15;;
76296;SDS011;65104;52.994;6.552;2022-11-18T16:14:06;17.25;;;8.48;;
76296;SDS011;65104;52.994;6.552;2022-11-18T16:16:33;17.25;;;7.57;;
76296;SDS011;65104;52.994;6.552;2022-11-18T16:19:00;16.65;;;7.90;;
76296;SDS011;65104;52.994;6.552;2022-11-18T16:21:28;14.82;;;7.68;;
76296;SDS011;65104;52.994;6.552;2022-11-18T16:23:56;18.40;;;7.60;;
76296;SDS011;65104;52.994;6.552;2022-11-18T16:26:23;17.73;;;7.43;;
76296;SDS011;65104;52.994;6.552;2022-11-18T16:28:49;15.90;;;6.85;;
76296;SDS011;65104;52.994;6.552;2022-11-18T16:31:14;15.88;;;7.65;;
76296;SDS011;65104;52.994;6.552;2022-11-18T16:33:58;17.77;;;7.00;;
76296;SDS011;65104;52.994;6.552;2022-11-18T16:36:29;15.63;;;6.97;;
76296;SDS011;65104;52.994;6.552;2022-11-18T16:38:55;19.00;;;7.80;;
76296;SDS011;65104;52.994;6.552;2022-11-18T16:41:20;17.42;;;7.88;;
76296;SDS011;65104;52.994;6.552;2022-11-18T16:43:55;17.38;;;8.25;;
76296;SDS011;65104;52.994;6.552;2022-11-18T16:46:22;16.58;;;7.72;;
76296;SDS011;65104;52.994;6.552;2022-11-18T16:48:48;15.68;;;7.60;;
76296;SDS011;65104;52.994;6.552;2022-11-18T16:53:43;16.70;;;8.25;;
76296;SDS011;65104;52.994;6.552;2022-11-18T16:56:14;19.08;;;8.90;;
76296;SDS011;65104;52.994;6.552;2022-11-18T16:58:39;15.50;;;7.95;;